Terminal Aerodrome Forecast
Issued by NWS Greer, SC

Current Version | Previous Version | Text Only | Print | Product List | Glossary On
Versions: 1 2 3 4 5 6 7 8 9 10 11 12 13 14 15 16 17 18 19 20 21 22 23 24 25 26 27 28 29 30 31 32 33 34 35 36 37 38 39 40 41 42 43 44 45 46
000
FTUS42 KGSP 020500
TAFAVL
TAF
KAVL 020537Z 0206/0306 00000KT 1/2SM FG VV002
      TEMPO 0206/0210 2SM BR SCT002
     FM021300 00000KT 3SM BR BKN012
     FM021500 34003KT P6SM SCT050
     FM021700 17003KT P6SM SCT060=

USA.gov is the U.S. government's official web portal to all federal, state and local government web resources and services.